createdAt,value
2018-03-20T00:00:01.914Z,65.30
2018-03-20T00:01:07.545Z,64.29
2018-03-20T00:02:13.523Z,64.51
2018-03-20T00:03:19.811Z,64.10
2018-03-20T00:04:26.071Z,65.49
2018-03-20T00:05:32.340Z,64.95
2018-03-20T00:06:38.514Z,65.29
2018-03-20T00:07:44.740Z,64.38
2018-03-20T00:08:50.946Z,64.50
2018-03-20T00:09:57.121Z,65.46
2018-03-20T00:11:03.298Z,65.20
2018-03-20T00:12:09.173Z,65.33
2018-03-20T00:13:15.046Z,65.58
2018-03-20T00:14:21.267Z,65.51
2018-03-20T00:15:27.415Z,65.55
2018-03-20T00:16:33.627Z,65.54
2018-03-20T00:17:43.014Z,66.00
2018-03-20T00:18:49.216Z,65.25
2018-03-20T00:19:55.434Z,64.89
2018-03-20T00:21:02.569Z,65.51
2018-03-20T00:22:08.457Z,65.10
2018-03-20T00:23:14.353Z,65.81
2018-03-20T00:24:20.562Z,66.72
2018-03-20T00:25:26.859Z,66.99
2018-03-20T00:26:33.037Z,65.95
2018-03-20T00:27:39.225Z,66.58
2018-03-20T00:28:45.386Z,65.75
2018-03-20T00:29:51.623Z,65.92
2018-03-20T00:30:57.858Z,66.47
2018-03-20T00:32:03.987Z,66.70
2018-03-20T00:33:09.985Z,66.30
2018-03-20T00:34:16.350Z,67.13
2018-03-20T00:35:22.480Z,66.12
2018-03-20T00:36:28.647Z,65.61
2018-03-20T00:37:35.598Z,66.97
2018-03-20T00:38:41.733Z,66.48
2018-03-20T00:39:47.907Z,66.37
2018-03-20T00:40:54.023Z,65.48
2018-03-20T00:42:00.214Z,65.48
2018-03-20T00:43:06.346Z,65.75
2018-03-20T00:44:12.481Z,66.12
2018-03-20T00:45:18.650Z,65.99
2018-03-20T00:46:24.823Z,65.89
2018-03-20T00:47:31.049Z,66.98
2018-03-20T00:48:37.191Z,67.40
2018-03-20T00:49:43.397Z,66.53
2018-03-20T00:50:49.581Z,67.28
2018-03-20T00:51:55.746Z,66.58
2018-03-20T00:53:01.991Z,66.93
2018-03-20T00:54:07.841Z,66.88
2018-03-20T00:55:14.051Z,66.59
2018-03-20T00:56:20.124Z,66.63
2018-03-20T00:57:26.621Z,67.19
2018-03-20T00:58:33.132Z,66.44
2018-03-20T00:59:39.337Z,66.89
2018-03-20T01:00:45.584Z,66.79
2018-03-20T01:01:51.701Z,66.55
2018-03-20T01:02:57.908Z,65.93
2018-03-20T01:04:04.094Z,66.22
2018-03-20T01:05:10.301Z,66.88
2018-03-20T01:06:16.456Z,66.40
2018-03-20T01:07:22.619Z,66.77
2018-03-20T01:08:28.819Z,66.32
2018-03-20T01:09:34.708Z,66.79
2018-03-20T01:10:40.900Z,67.21
2018-03-20T01:11:47.076Z,66.86
2018-03-20T01:12:53.281Z,66.61
2018-03-20T01:14:00.648Z,66.97
2018-03-20T01:15:06.852Z,67.08
2018-03-20T01:16:12.758Z,66.83
2018-03-20T01:17:18.716Z,66.07
2018-03-20T01:18:24.844Z,65.52
2018-03-20T01:19:31.823Z,65.84
2018-03-20T01:20:42.555Z,65.61
2018-03-20T01:21:48.900Z,65.54
2018-03-20T01:22:55.117Z,65.52
2018-03-20T01:24:01.994Z,65.48
2018-03-20T01:25:08.164Z,65.08
2018-03-20T01:26:14.403Z,65.53
2018-03-20T01:27:20.626Z,65.49
2018-03-20T01:28:26.777Z,65.26
2018-03-20T01:29:32.654Z,65.29
2018-03-20T01:30:38.848Z,66.39
2018-03-20T01:31:45.009Z,66.43
2018-03-20T01:32:58.644Z,65.80
2018-03-20T01:34:04.805Z,66.23
2018-03-20T01:35:13.082Z,66.05
2018-03-20T01:36:19.697Z,65.86
2018-03-20T01:37:25.600Z,66.45
2018-03-20T01:38:31.782Z,65.93
2018-03-20T01:39:37.789Z,66.45
2018-03-20T01:40:43.944Z,66.32
2018-03-20T01:41:50.133Z,67.23
2018-03-20T01:42:56.291Z,66.60
2018-03-20T01:44:02.457Z,66.42
2018-03-20T01:45:08.697Z,66.06
2018-03-20T01:46:15.114Z,66.25
2018-03-20T01:47:21.251Z,66.64
2018-03-20T01:48:27.377Z,66.88
2018-03-20T01:49:33.556Z,65.93
2018-03-20T01:50:39.794Z,66.35
2018-03-20T01:51:45.927Z,65.70
2018-03-20T01:53:03.104Z,65.44
2018-03-20T01:54:09.185Z,64.97
2018-03-20T01:55:15.321Z,65.08
2018-03-20T01:56:21.492Z,65.51
2018-03-20T01:57:27.569Z,65.14
2018-03-20T01:58:33.884Z,65.55
2018-03-20T01:59:40.085Z,65.57
2018-03-20T02:00:46.249Z,66.27
2018-03-20T02:01:51.413Z,66.46
2018-03-20T02:02:57.353Z,65.32
2018-03-20T02:04:03.574Z,64.92
2018-03-20T02:05:09.721Z,65.63
2018-03-20T02:06:16.206Z,65.54
2018-03-20T02:07:22.388Z,66.01
2018-03-20T02:08:28.524Z,66.66
2018-03-20T02:09:34.916Z,66.84
2018-03-20T02:10:41.103Z,66.11
2018-03-20T02:11:47.518Z,66.46
2018-03-20T02:12:53.706Z,65.80
2018-03-20T02:13:59.923Z,66.84
2018-03-20T02:15:05.779Z,66.83
2018-03-20T02:16:11.950Z,65.54
2018-03-20T02:17:18.211Z,65.12
2018-03-20T02:18:24.357Z,65.58
2018-03-20T02:19:30.158Z,65.85
2018-03-20T02:20:36.344Z,66.49
2018-03-20T02:21:43.396Z,65.64
2018-03-20T02:22:49.580Z,67.17
2018-03-20T02:23:55.778Z,67.15
2018-03-20T02:25:01.985Z,66.64
2018-03-20T02:26:08.185Z,66.48
2018-03-20T02:27:14.322Z,67.09
2018-03-20T02:28:20.568Z,67.15
2018-03-20T02:29:26.810Z,67.88
2018-03-20T02:30:32.965Z,66.82
2018-03-20T02:31:39.278Z,67.21
2018-03-20T02:32:45.780Z,66.79
2018-03-20T02:33:52.009Z,67.87
2018-03-20T02:34:58.164Z,67.46
2018-03-20T02:36:04.020Z,67.85
2018-03-20T02:37:10.208Z,68.55
2018-03-20T02:38:16.397Z,68.04
2018-03-20T02:39:22.567Z,67.72
2018-03-20T02:40:28.425Z,67.35
2018-03-20T02:41:34.607Z,67.35
2018-03-20T02:42:40.819Z,67.64
2018-03-20T02:43:47.002Z,67.24
2018-03-20T02:44:53.263Z,67.56
2018-03-20T02:45:59.479Z,67.73
2018-03-20T02:47:05.435Z,67.46
2018-03-20T02:48:12.274Z,66.86
2018-03-20T02:49:18.451Z,67.01
2018-03-20T02:50:24.646Z,66.97
2018-03-20T02:51:30.799Z,67.36
2018-03-20T02:52:37.020Z,67.75
2018-03-20T02:53:43.224Z,67.60
2018-03-20T02:54:49.353Z,67.45
2018-03-20T02:55:55.532Z,68.62
2018-03-20T02:57:01.770Z,68.19
2018-03-20T02:58:07.705Z,68.45
2018-03-20T02:59:13.559Z,68.96
2018-03-20T03:00:19.739Z,69.66
2018-03-20T03:01:25.963Z,70.40
2018-03-20T03:02:32.492Z,71.02
2018-03-20T03:03:38.686Z,70.35
2018-03-20T03:04:44.868Z,71.27
2018-03-20T03:05:51.042Z,71.80
2018-03-20T03:06:56.988Z,71.41
2018-03-20T03:08:03.238Z,70.37
2018-03-20T03:09:09.769Z,70.02
2018-03-20T03:10:16.872Z,69.46
2018-03-20T03:11:23.935Z,68.70
2018-03-20T03:12:30.172Z,68.64
2018-03-20T03:13:36.385Z,68.97
2018-03-20T03:14:42.629Z,68.87
2018-03-20T03:15:48.803Z,68.71
2018-03-20T03:16:54.669Z,69.88
2018-03-20T03:18:00.853Z,68.76
2018-03-20T03:19:06.976Z,69.39
2018-03-20T03:20:14.308Z,70.17
2018-03-20T03:21:24.361Z,69.46
2018-03-20T03:22:30.537Z,68.72
2018-03-20T03:23:36.785Z,68.50
2018-03-20T03:24:47.902Z,68.16
2018-03-20T03:25:55.142Z,69.05
2018-03-20T03:27:01.425Z,68.33
2018-03-20T03:28:07.629Z,68.49
2018-03-20T03:29:13.813Z,68.66
2018-03-20T03:30:20.067Z,68.60
2018-03-20T03:31:26.468Z,68.37
2018-03-20T03:32:32.695Z,69.04
2018-03-20T03:33:39.327Z,69.13
2018-03-20T03:34:45.596Z,69.32
2018-03-20T03:35:51.736Z,69.58
2018-03-20T03:36:57.682Z,69.58
2018-03-20T03:38:03.845Z,69.64
2018-03-20T03:39:10.423Z,69.38
2018-03-20T03:40:16.721Z,70.40
2018-03-20T03:41:23.707Z,70.47
2018-03-20T03:42:30.074Z,71.00
2018-03-20T03:43:36.456Z,70.77
2018-03-20T03:44:43.035Z,70.11
2018-03-20T03:45:51.026Z,70.23
2018-03-20T03:47:02.166Z,71.69
2018-03-20T03:48:09.218Z,72.09
2018-03-20T03:49:15.874Z,72.00
2018-03-20T03:50:22.439Z,72.32
2018-03-20T03:51:30.212Z,72.37
2018-03-20T03:52:36.687Z,72.93
2018-03-20T03:53:42.818Z,73.08
2018-03-20T03:54:49.481Z,73.01
2018-03-20T03:55:59.993Z,72.18
2018-03-20T03:57:06.160Z,72.33
2018-03-20T03:58:12.316Z,72.99
2018-03-20T03:59:19.236Z,73.14
2018-03-20T04:00:26.045Z,73.16
2018-03-20T04:01:32.981Z,73.14
2018-03-20T04:02:40.122Z,73.31
2018-03-20T04:03:46.444Z,74.04
2018-03-20T04:04:52.608Z,74.37
2018-03-20T04:05:59.766Z,75.26
2018-03-20T04:07:07.874Z,75.00
2018-03-20T04:08:18.939Z,75.06
2018-03-20T04:09:25.145Z,74.92
2018-03-20T04:10:31.348Z,74.63
2018-03-20T04:11:37.528Z,74.19
2018-03-20T04:12:43.769Z,74.15
2018-03-20T04:13:49.725Z,73.59
2018-03-20T04:14:57.705Z,73.86
2018-03-20T04:16:08.820Z,73.88
2018-03-20T04:17:15.022Z,74.16
2018-03-20T04:18:21.754Z,75.41
2018-03-20T04:19:28.234Z,76.20
2018-03-20T04:20:34.274Z,75.84
2018-03-20T04:21:40.480Z,76.23
2018-03-20T04:22:47.157Z,75.38
2018-03-20T04:23:53.793Z,75.94
2018-03-20T04:25:06.055Z,75.34
2018-03-20T04:26:16.204Z,75.56
2018-03-20T04:27:23.116Z,76.08
2018-03-20T04:28:39.494Z,76.30
2018-03-20T04:29:46.798Z,76.20
2018-03-20T04:30:53.422Z,75.51
2018-03-20T04:31:59.635Z,74.86
2018-03-20T04:33:06.178Z,74.90
2018-03-20T04:34:12.417Z,75.09
2018-03-20T04:35:18.626Z,75.89
2018-03-20T04:36:24.772Z,75.63
2018-03-20T04:37:30.931Z,75.53
2018-03-20T04:38:37.160Z,75.05
2018-03-20T04:39:43.383Z,75.23
2018-03-20T04:40:49.578Z,75.28
2018-03-20T04:41:55.781Z,76.10
2018-03-20T04:43:02.032Z,76.13
2018-03-20T04:44:08.170Z,76.17
2018-03-20T04:45:14.397Z,76.27
2018-03-20T04:46:20.576Z,75.82
2018-03-20T04:47:26.788Z,76.68
2018-03-20T04:48:32.975Z,76.49
2018-03-20T04:49:39.133Z,76.96
2018-03-20T04:50:45.268Z,77.07
2018-03-20T04:51:51.446Z,76.59
2018-03-20T04:52:57.349Z,76.98
2018-03-20T04:54:03.532Z,76.14
2018-03-20T04:55:09.691Z,75.80
2018-03-20T04:56:15.877Z,75.82
2018-03-20T04:57:22.133Z,76.16
2018-03-20T04:58:28.419Z,76.63
2018-03-20T04:59:34.558Z,76.62
2018-03-20T05:00:40.753Z,77.49
2018-03-20T05:01:46.973Z,78.69
2018-03-20T05:02:53.188Z,78.48
2018-03-20T05:03:59.371Z,78.31
2018-03-20T05:05:05.172Z,78.29
2018-03-20T05:06:11.375Z,77.55
2018-03-20T05:07:17.843Z,76.87
2018-03-20T05:08:25.449Z,76.91
2018-03-20T05:09:31.808Z,77.88
2018-03-20T05:10:37.792Z,78.62
2018-03-20T05:11:44.104Z,77.85
2018-03-20T05:12:50.610Z,78.70
2018-03-20T05:13:57.642Z,79.39
2018-03-20T05:15:04.516Z,78.89
2018-03-20T05:16:11.260Z,78.14
2018-03-20T05:17:18.303Z,78.61
2018-03-20T05:18:24.882Z,78.91
2018-03-20T05:31:32.614Z,80.88
2018-03-20T05:32:39.047Z,81.01
2018-03-20T05:33:45.095Z,80.72
2018-03-20T05:34:51.100Z,80.00
2018-03-20T05:35:57.064Z,79.54
2018-03-20T05:37:03.105Z,79.37
2018-03-20T05:38:09.058Z,78.65
2018-03-20T05:39:15.090Z,77.65
2018-03-20T05:40:21.067Z,77.93
2018-03-20T05:41:27.110Z,76.84
2018-03-20T05:42:33.061Z,76.01
2018-03-20T05:43:39.098Z,75.90
2018-03-20T05:44:45.088Z,76.16
2018-03-20T05:45:51.160Z,75.39
2018-03-20T05:47:02.681Z,76.07
2018-03-20T05:48:14.207Z,75.26
2018-03-20T05:50:58.721Z,74.77
2018-03-20T05:52:10.094Z,74.99
2018-03-20T05:53:17.396Z,75.02
2018-03-20T05:54:23.594Z,74.60
2018-03-20T05:55:29.789Z,75.11
2018-03-20T05:56:35.964Z,74.94
2018-03-20T05:57:42.163Z,76.08
2018-03-20T05:58:48.349Z,75.35
2018-03-20T05:59:54.487Z,75.63
2018-03-20T06:01:00.509Z,74.71
2018-03-20T06:02:06.661Z,73.92
2018-03-20T06:03:12.831Z,73.41
2018-03-20T06:04:19.044Z,75.11
2018-03-20T06:05:26.759Z,75.35
2018-03-20T06:06:33.917Z,75.81
2018-03-20T06:07:40.171Z,75.45
2018-03-20T06:08:46.840Z,75.13
2018-03-20T06:09:53.118Z,75.92
2018-03-20T06:10:59.298Z,74.93
2018-03-20T06:12:05.605Z,73.91
2018-03-20T06:13:11.941Z,74.21
2018-03-20T06:14:18.195Z,74.72
2018-03-20T06:15:24.513Z,75.21
2018-03-20T06:16:30.895Z,75.32
2018-03-20T06:17:37.284Z,75.21
2018-03-20T06:18:44.425Z,75.73
2018-03-20T06:19:52.794Z,75.38
2018-03-20T06:20:59.006Z,75.75
2018-03-20T06:22:05.200Z,75.48
2018-03-20T06:23:11.328Z,74.96
2018-03-20T06:24:17.545Z,75.06
2018-03-20T06:25:23.727Z,75.38
2018-03-20T06:26:29.915Z,75.62
2018-03-20T06:27:36.106Z,75.24
2018-03-20T06:28:42.640Z,74.94
2018-03-20T06:29:48.789Z,75.28
2018-03-20T06:30:54.954Z,76.23
2018-03-20T06:32:00.881Z,76.21
2018-03-20T06:33:07.058Z,76.05
2018-03-20T06:34:12.914Z,76.05
2018-03-20T06:35:19.130Z,76.42
2018-03-20T06:36:25.391Z,76.46
2018-03-20T06:37:31.548Z,75.93
2018-03-20T06:38:37.714Z,76.96
2018-03-20T06:39:43.905Z,78.15
2018-03-20T06:40:50.113Z,79.23
2018-03-20T06:41:56.271Z,79.47
2018-03-20T06:43:02.231Z,79.26
2018-03-20T06:44:08.404Z,78.76
2018-03-20T06:45:14.603Z,78.99
2018-03-20T06:46:20.872Z,80.32
2018-03-20T06:47:27.041Z,80.21
2018-03-20T06:48:33.270Z,81.11
2018-03-20T06:49:39.428Z,82.66
2018-03-20T06:50:45.576Z,83.52
2018-03-20T06:51:51.978Z,84.63
2018-03-20T06:52:58.164Z,85.49
2018-03-20T06:54:04.432Z,85.77
2018-03-20T06:55:10.606Z,85.79
2018-03-20T06:56:17.779Z,86.26
2018-03-20T06:57:24.025Z,86.48
2018-03-20T06:58:30.187Z,87.90
2018-03-20T06:59:36.438Z,88.18
2018-03-20T07:00:42.821Z,87.73
2018-03-20T07:01:48.847Z,88.13
2018-03-20T07:02:55.129Z,88.74
2018-03-20T07:04:01.335Z,88.95
2018-03-20T07:05:07.483Z,89.41
2018-03-20T07:06:14.373Z,89.41
2018-03-20T07:07:20.786Z,89.71
2018-03-20T07:08:30.965Z,89.60
2018-03-20T07:09:37.824Z,90.24
2018-03-20T07:10:43.976Z,90.74
2018-03-20T07:11:50.187Z,91.78
2018-03-20T07:12:56.625Z,91.69
2018-03-20T07:14:07.812Z,91.58
2018-03-20T07:15:13.988Z,91.41
2018-03-20T07:16:21.508Z,91.48
2018-03-20T07:17:32.879Z,91.74
2018-03-20T07:18:39.066Z,91.67
2018-03-20T07:19:45.975Z,91.74
2018-03-20T07:20:52.226Z,91.91
2018-03-20T07:21:58.421Z,91.77
2018-03-20T07:23:04.649Z,92.10
2018-03-20T07:24:10.893Z,92.29
2018-03-20T07:25:17.369Z,92.46
2018-03-20T07:26:23.590Z,92.42
2018-03-20T07:27:29.842Z,92.56
2018-03-20T07:28:36.059Z,92.73
2018-03-20T07:29:42.221Z,92.86
2018-03-20T07:30:48.371Z,92.87
2018-03-20T07:31:54.506Z,93.25
2018-03-20T07:33:00.652Z,93.30
2018-03-20T07:34:07.119Z,93.31
2018-03-20T07:35:13.347Z,93.01
2018-03-20T07:36:19.532Z,92.32
2018-03-20T07:37:30.694Z,91.80
2018-03-20T07:38:38.948Z,91.87
2018-03-20T07:39:44.903Z,91.75
2018-03-20T07:40:51.065Z,91.54
2018-03-20T07:41:57.243Z,90.90
2018-03-20T07:43:03.835Z,90.81
2018-03-20T07:44:09.852Z,91.50
2018-03-20T07:45:15.842Z,91.70
2018-03-20T07:46:22.057Z,92.04
2018-03-20T07:47:28.222Z,91.61
2018-03-20T07:48:34.391Z,91.76
2018-03-20T07:49:40.609Z,91.75
2018-03-20T07:50:46.813Z,92.05
2018-03-20T07:51:53.060Z,91.53
2018-03-20T07:53:08.106Z,91.62
2018-03-20T07:54:14.258Z,91.54
2018-03-20T07:55:20.421Z,91.78
2018-03-20T07:56:26.619Z,91.83
2018-03-20T07:57:32.778Z,92.33
2018-03-20T07:58:38.996Z,92.96
2018-03-20T07:59:44.994Z,93.02
2018-03-20T08:00:51.172Z,92.81
2018-03-20T08:01:57.378Z,92.76
2018-03-20T08:03:03.596Z,92.73
2018-03-20T08:04:09.814Z,93.01
2018-03-20T08:05:16.024Z,93.13
2018-03-20T08:06:21.974Z,93.62
2018-03-20T08:07:28.127Z,93.19
2018-03-20T08:08:34.680Z,93.06
2018-03-20T08:09:40.978Z,92.68
2018-03-20T08:10:47.134Z,92.90
2018-03-20T08:11:53.403Z,93.06
2018-03-20T08:12:59.613Z,93.02
2018-03-20T08:14:06.315Z,93.17
2018-03-20T08:15:12.460Z,93.02
2018-03-20T08:16:18.689Z,92.89
2018-03-20T08:17:24.936Z,92.17
2018-03-20T08:18:31.097Z,92.20
2018-03-20T08:19:37.271Z,91.81
2018-03-20T08:20:43.572Z,91.60
2018-03-20T08:21:49.817Z,91.19
2018-03-20T08:22:55.991Z,90.68
2018-03-20T08:24:02.140Z,90.38
2018-03-20T08:25:08.343Z,90.39
2018-03-20T08:26:14.610Z,90.49
2018-03-20T08:27:20.777Z,90.39
2018-03-20T08:28:26.981Z,90.37
2018-03-20T08:29:33.231Z,90.14
2018-03-20T08:30:39.436Z,90.48
2018-03-20T08:31:45.693Z,90.21
2018-03-20T08:32:51.904Z,90.58
2018-03-20T08:33:58.062Z,90.31
2018-03-20T08:35:03.940Z,89.86
2018-03-20T08:36:10.152Z,89.89
2018-03-20T08:37:16.351Z,89.39
2018-03-20T08:38:22.521Z,89.32
2018-03-20T08:39:28.995Z,89.28
2018-03-20T08:40:35.346Z,88.84
2018-03-20T08:41:41.584Z,88.09
2018-03-20T08:42:47.770Z,87.73
2018-03-20T08:43:53.936Z,87.59
2018-03-20T08:45:00.097Z,87.25
2018-03-20T08:46:06.068Z,86.90
2018-03-20T08:47:12.270Z,86.81
2018-03-20T08:48:18.404Z,87.17
2018-03-20T08:49:24.614Z,87.62
2018-03-20T08:50:30.807Z,87.76
2018-03-20T08:51:36.705Z,87.95
2018-03-20T08:52:42.600Z,88.25
2018-03-20T08:53:48.807Z,87.68
2018-03-20T08:54:54.968Z,87.76
2018-03-20T08:56:01.172Z,87.25
2018-03-20T08:57:07.377Z,86.60
2018-03-20T08:58:13.596Z,86.05
2018-03-20T08:59:19.761Z,86.69
2018-03-20T09:00:27.918Z,87.43
2018-03-20T09:01:40.506Z,87.63
2018-03-20T09:02:46.742Z,87.53
2018-03-20T09:03:53.737Z,87.29
2018-03-20T09:04:59.900Z,87.42
2018-03-20T09:06:05.439Z,87.53
2018-03-20T09:07:11.470Z,87.36
2018-03-20T09:08:17.635Z,87.83
2018-03-20T09:09:24.255Z,88.16
2018-03-20T09:10:30.455Z,88.28
2018-03-20T09:11:36.587Z,87.84
2018-03-20T09:12:42.750Z,87.14
2018-03-20T09:13:48.957Z,88.14
2018-03-20T09:14:55.143Z,87.88
2018-03-20T09:16:01.359Z,87.48
2018-03-20T09:17:07.507Z,87.30
2018-03-20T09:18:13.702Z,87.37
2018-03-20T09:19:19.972Z,87.68
2018-03-20T09:20:26.141Z,87.66
2018-03-20T09:21:35.760Z,88.07
2018-03-20T09:22:44.440Z,87.59
2018-03-20T09:23:50.645Z,87.17
2018-03-20T09:24:56.822Z,86.86
2018-03-20T09:26:03.007Z,86.83
2018-03-20T09:27:09.180Z,87.82
2018-03-20T09:28:15.361Z,87.54
2018-03-20T09:29:21.535Z,87.29
2018-03-20T09:30:27.771Z,87.17
2018-03-20T09:31:33.926Z,88.33
2018-03-20T09:32:40.095Z,88.57
2018-03-20T09:33:46.286Z,88.79
2018-03-20T09:34:52.483Z,88.89
2018-03-20T09:35:59.642Z,89.47
2018-03-20T09:37:05.841Z,89.54
2018-03-20T09:38:11.980Z,89.63
2018-03-20T09:39:17.905Z,90.13
2018-03-20T09:40:24.101Z,89.69
2018-03-20T09:41:30.238Z,89.61
2018-03-20T09:42:37.032Z,90.06
2018-03-20T09:43:49.664Z,89.61
2018-03-20T09:44:55.884Z,89.13
2018-03-20T09:46:02.046Z,89.79
2018-03-20T09:47:08.177Z,89.64
2018-03-20T09:48:14.380Z,89.40
2018-03-20T09:49:20.590Z,88.71
2018-03-20T09:50:26.800Z,89.72
2018-03-20T09:51:32.734Z,90.04
2018-03-20T09:52:38.920Z,89.33
2018-03-20T09:53:45.306Z,90.04
2018-03-20T09:54:51.463Z,90.05
2018-03-20T09:55:57.605Z,90.51
2018-03-20T09:57:03.794Z,90.59
2018-03-20T09:58:09.947Z,90.84
2018-03-20T09:59:15.959Z,90.74
2018-03-20T10:00:22.154Z,90.27
2018-03-20T10:01:28.077Z,90.17
2018-03-20T10:02:34.290Z,89.12
2018-03-20T10:03:45.476Z,89.07
2018-03-20T10:04:51.962Z,88.30
2018-03-20T10:05:58.171Z,88.76
2018-03-20T10:07:04.364Z,88.83
2018-03-20T10:08:10.541Z,88.42
2018-03-20T10:09:16.781Z,88.30
2018-03-20T10:10:22.957Z,87.93
2018-03-20T10:11:29.105Z,87.96
2018-03-20T10:12:35.358Z,88.45
2018-03-20T10:13:41.578Z,88.95
2018-03-20T10:14:47.704Z,87.89
2018-03-20T10:15:53.909Z,87.80
2018-03-20T10:17:00.101Z,87.13
2018-03-20T10:18:05.910Z,86.97
2018-03-20T10:19:12.096Z,87.13
2018-03-20T10:20:18.378Z,87.47
2018-03-20T10:21:24.706Z,87.20
2018-03-20T10:22:30.902Z,86.99
2018-03-20T10:23:37.061Z,86.86
2018-03-20T10:24:43.250Z,86.43
2018-03-20T10:25:49.181Z,86.39
2018-03-20T10:26:55.321Z,86.47
2018-03-20T10:28:01.777Z,86.08
2018-03-20T10:29:08.514Z,86.46
2018-03-20T10:30:14.736Z,86.23
2018-03-20T10:31:20.883Z,87.03
2018-03-20T10:32:27.031Z,86.81
2018-03-20T10:33:33.284Z,86.14
2018-03-20T10:34:39.513Z,85.67
2018-03-20T10:35:45.714Z,85.63
2018-03-20T10:36:51.979Z,86.70
2018-03-20T10:37:58.159Z,86.18
2018-03-20T10:39:09.800Z,85.53
2018-03-20T10:40:15.929Z,84.86
2018-03-20T10:41:22.102Z,85.47
2018-03-20T10:42:28.306Z,85.73
2018-03-20T10:43:34.451Z,85.83
2018-03-20T10:44:40.352Z,86.26
2018-03-20T10:45:46.607Z,85.86
2018-03-20T10:46:52.864Z,86.45
2018-03-20T10:47:59.060Z,87.26
2018-03-20T10:49:05.246Z,87.22
2018-03-20T10:50:11.450Z,87.18
2018-03-20T10:51:17.637Z,86.83
2018-03-20T10:52:23.894Z,86.38
2018-03-20T10:53:30.042Z,86.37
2018-03-20T10:54:36.264Z,86.04
2018-03-20T10:55:42.518Z,85.82
2018-03-20T10:56:48.464Z,85.83
2018-03-20T10:57:54.656Z,85.92
2018-03-20T10:59:00.856Z,85.70
2018-03-20T11:00:06.401Z,86.46
2018-03-20T11:01:17.862Z,86.00
2018-03-20T11:02:29.535Z,85.57
2018-03-20T11:03:35.705Z,85.66
2018-03-20T11:04:41.882Z,85.54
2018-03-20T11:05:47.790Z,86.51
2018-03-20T11:06:54.177Z,86.81
2018-03-20T11:08:00.317Z,87.54
2018-03-20T11:09:05.783Z,87.49
2018-03-20T11:10:11.739Z,87.34
2018-03-20T11:11:17.934Z,87.62
2018-03-20T11:12:24.170Z,89.14
2018-03-20T11:13:30.354Z,89.19
2018-03-20T11:14:36.590Z,88.92
2018-03-20T11:15:42.736Z,89.37
2018-03-20T11:16:48.937Z,88.79
2018-03-20T11:17:55.144Z,88.19
2018-03-20T11:19:01.396Z,87.78
2018-03-20T11:20:07.645Z,87.52
2018-03-20T11:21:13.945Z,88.37
2018-03-20T11:22:20.163Z,88.83
2018-03-20T11:23:26.378Z,88.72
2018-03-20T11:24:32.609Z,90.10
2018-03-20T11:25:38.914Z,89.67
2018-03-20T11:26:45.100Z,88.92
2018-03-20T11:27:51.310Z,88.57
2018-03-20T11:28:57.558Z,89.95
2018-03-20T11:30:03.149Z,90.94
2018-03-20T11:31:09.329Z,90.51
2018-03-20T11:32:15.519Z,89.74
2018-03-20T11:33:22.108Z,88.92
2018-03-20T11:34:28.268Z,88.42
2018-03-20T11:35:34.194Z,89.24
2018-03-20T11:36:40.204Z,89.44
2018-03-20T11:37:46.080Z,89.55
2018-03-20T11:38:52.298Z,89.18
2018-03-20T11:39:58.504Z,88.80
2018-03-20T11:41:04.717Z,89.44
2018-03-20T11:42:10.965Z,89.32
2018-03-20T11:43:17.136Z,89.22
2018-03-20T11:44:23.372Z,89.22
2018-03-20T11:45:29.522Z,89.18
2018-03-20T11:46:35.678Z,89.17
2018-03-20T11:47:41.930Z,89.69
2018-03-20T11:48:54.273Z,89.42
2018-03-20T11:50:00.454Z,89.43
2018-03-20T11:51:09.550Z,89.15
2018-03-20T11:52:15.795Z,89.48
2018-03-20T11:53:22.005Z,89.88
2018-03-20T11:54:32.094Z,90.61
2018-03-20T11:55:38.311Z,90.44
2018-03-20T11:56:44.443Z,90.29
2018-03-20T11:57:51.246Z,90.11
2018-03-20T11:58:57.421Z,89.82
2018-03-20T12:00:03.284Z,90.04
2018-03-20T12:01:09.454Z,89.58
2018-03-20T12:02:15.579Z,89.50
2018-03-20T12:03:21.849Z,89.41
2018-03-20T12:04:28.016Z,89.75
2018-03-20T12:05:34.209Z,89.83
2018-03-20T12:06:40.403Z,90.24
2018-03-20T12:07:56.521Z,89.70
2018-03-20T12:09:13.474Z,89.60
2018-03-20T12:10:19.408Z,89.90
2018-03-20T12:11:25.654Z,89.81
2018-03-20T12:12:31.815Z,89.60
2018-03-20T12:13:37.963Z,89.93
2018-03-20T12:14:43.748Z,90.62
2018-03-20T12:15:49.761Z,90.79
2018-03-20T12:16:55.984Z,91.23
2018-03-20T12:18:01.953Z,91.00
2018-03-20T12:19:07.913Z,90.97
2018-03-20T12:20:14.072Z,91.21
2018-03-20T12:21:21.997Z,91.21
2018-03-20T12:22:28.323Z,91.89
2018-03-20T12:23:34.558Z,92.02
2018-03-20T12:24:46.694Z,92.73
2018-03-20T12:25:52.619Z,93.88
2018-03-20T12:26:58.869Z,93.59
2018-03-20T12:28:04.815Z,93.58
2018-03-20T12:29:11.012Z,94.03
2018-03-20T12:30:17.358Z,94.11
2018-03-20T12:31:23.970Z,94.52
2018-03-20T12:32:30.182Z,94.37
2018-03-20T12:33:36.354Z,94.42
2018-03-20T12:34:42.633Z,96.18
2018-03-20T12:35:48.971Z,97.14
2018-03-20T12:36:55.244Z,97.61
2018-03-20T12:38:01.448Z,97.92
2018-03-20T12:39:07.663Z,98.96
2018-03-20T12:40:13.570Z,98.85
2018-03-20T12:41:19.744Z,98.80
2018-03-20T12:42:26.527Z,98.54
2018-03-20T12:43:32.750Z,98.32
2018-03-20T12:44:39.356Z,98.06
2018-03-20T12:45:45.557Z,98.01
2018-03-20T12:46:51.492Z,97.72
2018-03-20T12:47:57.719Z,97.70
2018-03-20T12:49:04.015Z,97.68
2018-03-20T12:50:10.217Z,97.68
2018-03-20T12:51:16.644Z,98.02
2018-03-20T12:52:22.936Z,98.25
2018-03-20T12:53:29.814Z,97.94
2018-03-20T12:54:37.869Z,97.86
2018-03-20T12:55:43.903Z,97.87
2018-03-20T12:56:50.055Z,98.21
2018-03-20T12:57:56.302Z,97.90
2018-03-20T12:59:02.504Z,97.70
2018-03-20T13:00:08.417Z,97.85
2018-03-20T13:01:14.346Z,97.47
2018-03-20T13:02:20.539Z,97.54
2018-03-20T13:03:26.817Z,97.73
2018-03-20T13:04:33.044Z,97.12
2018-03-20T13:05:39.246Z,96.86
2018-03-20T13:06:45.472Z,97.11
2018-03-20T13:07:51.682Z,96.94
2018-03-20T13:08:57.900Z,96.99
2018-03-20T13:10:03.758Z,97.12
2018-03-20T13:11:10.038Z,96.87
2018-03-20T13:12:16.256Z,96.39
2018-03-20T13:13:22.098Z,96.17
2018-03-20T13:14:28.346Z,96.37
2018-03-20T13:15:34.528Z,96.18
2018-03-20T13:16:40.739Z,96.06
2018-03-20T13:17:47.142Z,95.41
2018-03-20T13:18:53.307Z,94.37
2018-03-20T13:19:59.579Z,94.41
2018-03-20T13:21:05.835Z,94.49
2018-03-20T13:22:12.114Z,94.53
2018-03-20T13:23:18.405Z,94.13
2018-03-20T13:24:24.793Z,94.08
2018-03-20T13:25:31.215Z,93.48
2018-03-20T13:26:37.406Z,93.94
2018-03-20T13:27:44.145Z,93.83
2018-03-20T13:28:50.341Z,93.61
2018-03-20T13:29:56.559Z,93.31
2018-03-20T13:31:02.797Z,93.45
2018-03-20T13:32:09.021Z,93.28
2018-03-20T13:33:15.168Z,92.78
2018-03-20T13:34:21.794Z,92.93
2018-03-20T13:35:28.106Z,92.95
2018-03-20T13:36:34.591Z,93.35
2018-03-20T13:37:40.816Z,93.19
2018-03-20T13:38:47.014Z,92.78
2018-03-20T13:39:53.244Z,93.22
2018-03-20T13:40:59.496Z,93.49
2018-03-20T13:42:05.434Z,93.43
2018-03-20T13:43:11.677Z,92.99
2018-03-20T13:44:17.955Z,92.75
2018-03-20T13:45:24.243Z,92.56
2018-03-20T13:46:30.440Z,92.50
2018-03-20T13:47:36.685Z,92.78
2018-03-20T13:48:42.940Z,93.25
2018-03-20T13:51:14.942Z,93.91
2018-03-20T13:52:21.160Z,93.62
2018-03-20T13:53:27.262Z,94.20
2018-03-20T13:54:35.979Z,94.01
2018-03-20T13:55:48.077Z,93.92
2018-03-20T13:56:54.056Z,93.79
2018-03-20T13:58:00.329Z,94.23
2018-03-20T13:59:06.275Z,94.15
2018-03-20T14:00:12.156Z,94.62
2018-03-20T14:01:18.134Z,94.60
2018-03-20T14:02:24.105Z,94.95
2018-03-20T14:03:30.333Z,94.91
2018-03-20T14:04:36.663Z,94.44
2018-03-20T14:05:42.864Z,94.57
2018-03-20T14:06:49.127Z,94.84
2018-03-20T14:07:55.408Z,95.22
2018-03-20T14:09:01.355Z,95.20
2018-03-20T14:10:07.323Z,95.31
2018-03-20T14:11:13.557Z,95.47
2018-03-20T14:12:19.846Z,95.48
2018-03-20T14:13:26.088Z,95.23
2018-03-20T14:14:31.214Z,95.19
2018-03-20T14:15:36.417Z,95.12
2018-03-20T14:16:42.624Z,95.03
2018-03-20T14:17:48.803Z,95.05
2018-03-20T14:18:55.386Z,95.11
2018-03-20T14:20:01.702Z,95.39
2018-03-20T14:21:07.944Z,95.72
2018-03-20T14:22:14.237Z,95.31
2018-03-20T14:23:20.504Z,95.12
2018-03-20T14:24:26.925Z,94.91
2018-03-20T14:25:33.150Z,95.28
2018-03-20T14:26:39.464Z,95.29
2018-03-20T14:27:45.724Z,95.50
2018-03-20T14:28:51.964Z,95.59
2018-03-20T14:29:58.299Z,95.46
2018-03-20T14:31:04.574Z,95.49